Time;durP1;ratioP1;P1;durP2;ratioP2;P2;SDS_P1;SDS_P2;PMS_P1;PMS_P2;Temp;Humidity;BMP_temperature;BMP_pressure;BME280_temperature;BME280_humidity;BME280_pressure;Samples;Min_cycle;Max_cycle;Signal;HPM_P1;HPM_P2
2023/06/15 00:00:01;;;;;;;6.68;3.67;;;;;;;17.54;57.26;99058.00;4361613;32;34298;-86
2023/06/15 00:02:39;;;;;;;6.05;3.78;;;;;;;17.47;57.65;99053.75;4359991;32;33738;-87
2023/06/15 00:05:08;;;;;;;8.50;3.60;;;;;;;17.47;57.44;99054.59;4346663;32;33487;-85
2023/06/15 00:07:36;;;;;;;7.93;4.05;;;;;;;17.55;57.35;99059.72;4361077;32;33948;-86
2023/06/15 00:10:05;;;;;;;8.57;3.65;;;;;;;17.50;57.47;99059.81;4361371;32;34233;-87
2023/06/15 00:12:33;;;;;;;5.95;3.33;;;;;;;17.58;57.01;99051.81;4360408;32;33996;-87
2023/06/15 00:15:01;;;;;;;6.97;4.00;;;;;;;17.61;56.99;99054.34;4361063;32;34308;-85
2023/06/15 00:17:30;;;;;;;6.32;4.00;;;;;;;17.54;57.27;99051.88;4360453;32;33671;-85
2023/06/15 00:20:00;;;;;;;7.53;4.00;;;;;;;17.55;56.86;99051.00;4360095;32;34023;-86
2023/06/15 00:22:28;;;;;;;8.35;3.80;;;;;;;17.47;57.27;99049.38;4358777;32;33968;-86
2023/06/15 00:24:56;;;;;;;11.25;4.37;;;;;;;17.56;56.84;99052.72;4361135;32;33164;-85
2023/06/15 00:27:24;;;;;;;8.80;3.92;;;;;;;17.57;56.53;99057.06;4361062;32;34130;-85
2023/06/15 00:29:51;;;;;;;7.30;4.05;;;;;;;17.50;57.00;99054.56;4360422;32;34281;-87
2023/06/15 00:32:19;;;;;;;12.40;4.25;;;;;;;17.50;57.12;99048.44;4359760;32;33337;-88
2023/06/15 00:34:47;;;;;;;6.43;3.92;;;;;;;17.55;57.21;99048.37;4360291;32;32958;-86
2023/06/15 00:37:14;;;;;;;6.53;3.70;;;;;;;17.52;57.20;99050.13;4360132;32;33881;-86
2023/06/15 00:39:42;;;;;;;8.48;4.12;;;;;;;17.27;57.87;99056.66;4359988;32;34135;-85
2023/06/15 00:42:10;;;;;;;8.07;3.62;;;;;;;17.30;57.86;99048.78;4360566;32;33564;-88
2023/06/15 00:44:37;;;;;;;5.65;3.53;;;;;;;17.35;57.99;99054.81;4360766;32;34470;-85
2023/06/15 00:47:05;;;;;;;6.55;4.05;;;;;;;17.23;58.15;99055.00;4360828;32;34525;-85
2023/06/15 00:49:33;;;;;;;6.82;4.03;;;;;;;17.29;58.34;99054.03;4347068;32;33579;-87
2023/06/15 00:52:02;;;;;;;7.57;3.83;;;;;;;17.33;58.35;99050.47;4360810;32;33645;-87
2023/06/15 00:54:30;;;;;;;6.62;3.80;;;;;;;17.26;58.48;99052.34;4360677;32;33203;-86
2023/06/15 00:56:57;;;;;;;7.40;3.95;;;;;;;17.30;58.31;99051.38;4347564;32;33772;-86
2023/06/15 00:59:25;;;;;;;6.80;3.28;;;;;;;17.42;57.84;99051.19;4360757;32;33056;-87
2023/06/15 01:01:54;;;;;;;7.75;3.70;;;;;;;17.36;58.19;99047.81;4346144;32;33672;-84
2023/06/15 01:04:26;;;;;;;7.40;4.40;;;;;;;17.32;58.31;99044.38;4360506;32;33531;-84
2023/06/15 01:06:56;;;;;;;6.10;3.67;;;;;;;17.39;58.33;99046.00;4360806;32;34326;-86
2023/06/15 01:09:25;;;;;;;7.62;4.47;;;;;;;17.44;58.33;99049.41;4347511;32;34289;-85
2023/06/15 01:11:55;;;;;;;7.20;4.15;;;;;;;17.44;58.16;99046.78;4359414;32;34346;-85
2023/06/15 01:14:27;;;;;;;6.37;4.00;;;;;;;17.37;57.93;99042.53;4344764;33;33079;-86
2023/06/15 01:17:05;;;;;;;9.30;4.20;;;;;;;17.36;58.07;99042.56;4335088;32;33581;-85
2023/06/15 01:19:37;;;;;;;6.60;4.12;;;;;;;17.57;57.25;99046.56;4335655;32;33767;-87
2023/06/15 01:22:16;;;;;;;6.53;3.92;;;;;;;17.37;57.87;99039.06;4359920;32;33873;-87
2023/06/15 01:24:50;;;;;;;7.60;3.85;;;;;;;17.40;58.03;99029.38;4346622;32;33347;-87
2023/06/15 01:27:18;;;;;;;8.00;4.40;;;;;;;17.45;57.86;99030.16;4345968;32;34664;-85
2023/06/15 01:29:46;;;;;;;6.97;3.67;;;;;;;17.38;57.79;99028.53;4346840;32;33712;-86
2023/06/15 01:32:13;;;;;;;6.65;3.97;;;;;;;17.33;57.97;99022.53;4346881;32;34186;-85
2023/06/15 01:34:41;;;;;;;8.32;3.92;;;;;;;17.26;58.26;99018.28;4346847;32;33285;-86
2023/06/15 01:37:09;;;;;;;6.32;3.85;;;;;;;17.30;58.12;99022.56;4345595;32;34868;-86
2023/06/15 01:39:39;;;;;;;6.80;4.37;;;;;;;17.32;58.14;99027.81;4360623;32;34268;-87
2023/06/15 01:42:07;;;;;;;9.65;4.12;;;;;;;17.40;57.72;99032.00;4347412;32;34465;-87
2023/06/15 01:44:35;;;;;;;6.72;3.85;;;;;;;17.32;57.85;99028.66;4359483;32;33352;-84
2023/06/15 01:47:02;;;;;;;7.10;3.62;;;;;;;17.36;57.80;99019.84;4344073;32;33764;-86
2023/06/15 01:49:30;;;;;;;6.18;3.60;;;;;;;17.31;57.74;99026.91;4359555;32;35033;-87
2023/06/15 01:51:58;;;;;;;9.95;3.90;;;;;;;17.34;57.57;99026.00;4359792;32;33929;-85
2023/06/15 01:54:25;;;;;;;6.40;3.70;;;;;;;17.33;57.54;99019.91;4360991;32;33468;-85
2023/06/15 01:56:53;;;;;;;5.50;3.22;;;;;;;17.27;57.96;99022.62;4359090;32;34532;-86
2023/06/15 01:59:21;;;;;;;6.30;3.47;;;;;;;17.25;58.00;99024.41;4360493;32;34446;-85
2023/06/15 02:01:48;;;;;;;6.55;3.70;;;;;;;17.14;58.07;99023.72;4360678;32;34632;-86
2023/06/15 02:04:16;;;;;;;6.80;3.40;;;;;;;17.18;58.12;99036.75;4360330;32;33156;-85
2023/06/15 02:06:43;;;;;;;8.40;3.67;;;;;;;17.22;57.86;99027.06;4359242;32;33614;-87
2023/06/15 02:09:11;;;;;;;8.48;3.55;;;;;;;17.10;57.97;99027.28;4360443;32;34130;-86
2023/06/15 02:11:41;;;;;;;8.63;4.45;;;;;;;17.19;57.81;99030.59;4360533;32;34013;-87
2023/06/15 02:14:09;;;;;;;6.53;3.83;;;;;;;17.10;58.18;99022.91;4360492;32;34305;-87
2023/06/15 02:16:38;;;;;;;7.80;4.55;;;;;;;16.88;59.14;99032.84;4359498;32;33935;-87
2023/06/15 02:19:06;;;;;;;7.80;3.87;;;;;;;17.03;58.59;99032.59;4360401;32;34039;-86
2023/06/15 02:21:34;;;;;;;7.50;4.20;;;;;;;17.11;58.00;99037.72;4360122;32;34613;-86
2023/06/15 02:24:02;;;;;;;7.50;4.47;;;;;;;16.99;58.14;99040.53;4359875;32;33338;-86
2023/06/15 02:26:29;;;;;;;6.95;4.03;;;;;;;16.99;57.75;99036.16;4359720;32;34172;-87
2023/06/15 02:28:58;;;;;;;5.18;3.47;;;;;;;17.00;57.75;99037.03;4360031;32;33884;-86
2023/06/15 02:31:26;;;;;;;8.57;4.62;;;;;;;17.02;57.67;99036.12;4358856;32;33856;-86
2023/06/15 02:33:53;;;;;;;6.32;3.97;;;;;;;16.92;57.91;99033.66;4359986;32;33486;-86
2023/06/15 02:36:22;;;;;;;10.10;3.78;;;;;;;16.97;57.70;99037.94;4359161;32;34823;-84
2023/06/15 02:38:50;;;;;;;8.43;4.07;;;;;;;16.95;57.52;99031.84;4360426;32;34575;-85
2023/06/15 02:41:18;;;;;;;6.65;3.83;;;;;;;17.03;57.29;99031.75;4360341;32;33894;-87
2023/06/15 02:43:45;;;;;;;7.62;3.95;;;;;;;17.02;57.43;99032.63;4360038;32;34275;-85
2023/06/15 02:46:14;;;;;;;7.07;3.92;;;;;;;17.02;57.72;99030.88;4359247;32;33965;-86
2023/06/15 02:48:42;;;;;;;6.62;3.60;;;;;;;16.90;58.41;99031.06;4359803;32;34056;-86
2023/06/15 02:51:10;;;;;;;9.23;4.35;;;;;;;16.87;58.48;99038.97;4359549;32;34305;-86
2023/06/15 02:53:37;;;;;;;5.97;3.95;;;;;;;16.84;58.50;99033.78;4359424;32;34398;-86
2023/06/15 02:56:05;;;;;;;7.15;3.90;;;;;;;16.86;58.67;99033.72;4360145;32;34794;-85
2023/06/15 02:58:37;;;;;;;6.45;4.20;;;;;;;16.68;59.40;99034.84;4360117;32;34695;-85
2023/06/15 03:01:07;;;;;;;7.70;3.80;;;;;;;16.78;58.95;99031.22;4359351;32;34445;-85
2023/06/15 03:03:35;;;;;;;7.65;4.00;;;;;;;16.83;58.67;99034.66;4361487;32;33109;-87
2023/06/15 03:06:03;;;;;;;7.68;3.97;;;;;;;16.76;58.84;99017.31;4360680;32;34696;-86
2023/06/15 03:08:33;;;;;;;6.78;4.20;;;;;;;16.84;58.32;99031.16;4361787;32;35124;-86
2023/06/15 03:11:03;;;;;;;5.72;3.72;;;;;;;16.85;58.18;99027.63;4360727;32;34767;-84
2023/06/15 03:13:30;;;;;;;5.93;3.65;;;;;;;16.87;58.24;99027.63;4361689;32;32997;-84
2023/06/15 03:16:01;;;;;;;8.15;4.20;;;;;;;16.79;58.58;99035.59;4360482;32;33849;-88
2023/06/15 03:18:29;;;;;;;8.00;4.47;;;;;;;16.84;58.91;99031.16;4361111;32;34115;-85
2023/06/15 03:20:57;;;;;;;7.30;4.07;;;;;;;16.82;58.65;99032.06;4346973;32;33492;-85
2023/06/15 03:23:26;;;;;;;6.97;4.03;;;;;;;16.77;58.96;99034.75;4359689;32;33527;-86
2023/06/15 03:25:53;;;;;;;7.85;4.00;;;;;;;16.79;58.97;99025.13;4361218;32;33941;-86
2023/06/15 03:28:27;;;;;;;6.93;4.03;;;;;;;16.80;58.56;99029.47;4361845;32;34599;-88
2023/06/15 03:30:56;;;;;;;6.40;3.80;;;;;;;16.85;58.49;99038.13;4347846;32;34721;-86
2023/06/15 03:33:24;;;;;;;7.75;4.00;;;;;;;16.84;58.63;99040.75;4361726;32;32951;-86
2023/06/15 03:35:53;;;;;;;6.50;4.05;;;;;;;16.88;58.94;99040.69;4361644;32;34707;-85
2023/06/15 03:38:21;;;;;;;7.70;4.60;;;;;;;17.10;59.10;99041.22;4361137;32;33919;-85
2023/06/15 03:40:49;;;;;;;6.78;4.32;;;;;;;17.22;59.29;99048.91;4359621;32;33600;-86
2023/06/15 03:43:17;;;;;;;7.50;4.53;;;;;;;17.12;59.72;99049.06;4358884;32;33398;-86
2023/06/15 03:45:45;;;;;;;8.48;5.12;;;;;;;16.97;59.99;99047.53;4361345;32;33671;-85
2023/06/15 03:48:13;;;;;;;9.98;4.70;;;;;;;17.35;59.56;99048.69;4358616;32;33829;-84
2023/06/15 03:50:40;;;;;;;7.03;4.60;;;;;;;17.64;58.75;99050.81;4346041;32;34541;-84
2023/06/15 03:53:08;;;;;;;7.68;4.40;;;;;;;17.67;58.83;99048.16;4359357;32;34393;-84
2023/06/15 03:55:38;;;;;;;8.00;4.78;;;;;;;17.90;57.55;99048.63;4346509;33;34524;-85
2023/06/15 03:58:05;;;;;;;8.52;4.20;;;;;;;18.05;57.09;99054.47;4346388;33;33735;-86
2023/06/15 04:00:33;;;;;;;7.05;4.47;;;;;;;18.23;56.75;99051.50;4346599;33;34064;-85
2023/06/15 04:03:01;;;;;;;9.05;4.22;;;;;;;18.31;56.85;99051.34;4346456;32;33414;-87
2023/06/15 04:05:29;;;;;;;7.62;4.37;;;;;;;18.65;55.56;99056.75;4361292;32;33769;-86
2023/06/15 04:07:56;;;;;;;6.57;3.92;;;;;;;18.82;55.21;99051.13;4360000;32;34235;-84
2023/06/15 04:10:25;;;;;;;6.53;4.07;;;;;;;18.99;54.83;99050.78;4361086;32;33901;-87
2023/06/15 04:12:53;;;;;;;8.23;4.05;;;;;;;19.24;54.74;99048.41;4360723;32;33374;-86
2023/06/15 04:15:20;;;;;;;8.23;4.30;;;;;;;19.22;54.45;99052.84;4361458;32;33513;-85
2023/06/15 04:17:48;;;;;;;7.22;4.20;;;;;;;19.59;53.81;99048.41;4358938;32;33836;-85
2023/06/15 04:20:16;;;;;;;6.10;3.67;;;;;;;19.90;52.62;99045.00;4361013;32;34182;-85
2023/06/15 04:22:46;;;;;;;7.12;3.78;;;;;;;20.25;51.95;99054.53;4361426;32;34004;-85
2023/06/15 04:25:15;;;;;;;9.13;3.87;;;;;;;20.31;51.81;99053.53;4360552;32;34598;-86
2023/06/15 04:27:44;;;;;;;7.25;3.80;;;;;;;20.38;51.25;99058.56;4360015;32;34163;-85
2023/06/15 04:30:16;;;;;;;7.65;4.22;;;;;;;20.74;50.12;99061.03;4360012;32;33542;-87
2023/06/15 04:32:44;;;;;;;7.28;3.90;;;;;;;20.86;49.88;99058.03;4361399;32;34932;-85
2023/06/15 04:35:17;;;;;;;7.90;4.10;;;;;;;20.95;49.06;99053.38;4360454;32;33363;-87
2023/06/15 04:37:46;;;;;;;9.98;4.65;;;;;;;20.87;49.65;99050.97;4361009;32;34115;-87
2023/06/15 04:40:13;;;;;;;7.12;3.85;;;;;;;21.06;50.22;99059.16;4360437;32;33981;-85
2023/06/15 04:42:42;;;;;;;7.43;4.20;;;;;;;20.92;51.32;99059.62;4347251;32;34417;-86
2023/06/15 04:45:10;;;;;;;7.57;4.35;;;;;;;21.12;50.96;99062.50;4360608;32;33936;-86
2023/06/15 04:47:37;;;;;;;8.35;4.15;;;;;;;21.28;50.61;99062.00;4359659;32;32106;-84
2023/06/15 04:50:06;;;;;;;6.55;3.60;;;;;;;21.30;49.69;99066.31;4360741;32;32757;-87
2023/06/15 04:52:35;;;;;;;7.07;3.67;;;;;;;21.61;49.63;99065.31;4359648;32;34190;-84
2023/06/15 04:55:03;;;;;;;7.78;3.80;;;;;;;21.06;49.91;99067.09;4360842;32;34066;-86
2023/06/15 04:57:30;;;;;;;10.40;4.10;;;;;;;21.16;50.29;99076.44;4344466;32;32810;-86
2023/06/15 04:59:58;;;;;;;8.25;4.15;;;;;;;22.01;49.11;99078.03;4359841;32;34623;-85
2023/06/15 05:02:26;;;;;;;8.00;4.32;;;;;;;22.16;47.99;99071.37;4359978;32;32085;-83
2023/06/15 05:04:56;;;;;;;6.82;3.95;;;;;;;22.42;47.36;99074.81;4360006;32;33996;-85
2023/06/15 05:07:24;;;;;;;6.10;3.87;;;;;;;22.53;47.02;99076.13;4358308;32;33758;-85
2023/06/15 05:09:51;;;;;;;7.03;4.35;;;;;;;22.85;45.69;99063.50;4360434;32;34198;-85
2023/06/15 05:12:20;;;;;;;7.47;4.22;;;;;;;22.27;47.17;99074.47;4361037;32;33437;-85
2023/06/15 05:14:48;;;;;;;7.50;4.12;;;;;;;22.37;46.25;99072.34;4347599;32;33693;-85
2023/06/15 05:17:16;;;;;;;8.00;4.00;;;;;;;22.79;45.30;99085.72;4360470;32;35242;-84
2023/06/15 05:19:44;;;;;;;7.05;3.95;;;;;;;22.03;45.89;99083.25;4347069;32;34074;-89
2023/06/15 05:22:12;;;;;;;7.10;3.70;;;;;;;22.70;44.68;99093.16;4360575;32;33631;-85
2023/06/15 05:24:39;;;;;;;11.10;4.43;;;;;;;22.80;46.72;99097.16;4360436;32;34240;-86
2023/06/15 05:27:08;;;;;;;7.75;3.40;;;;;;;23.09;43.38;99085.50;4360839;32;34115;-85
2023/06/15 05:29:36;;;;;;;9.00;3.67;;;;;;;23.59;44.79;99087.88;4346244;32;33985;-85
2023/06/15 05:32:05;;;;;;;6.62;3.40;;;;;;;23.77;46.29;99094.22;4360816;32;33592;-85
2023/06/15 05:34:33;;;;;;;6.60;3.70;;;;;;;23.67;45.53;99091.09;4360367;32;33698;-86
2023/06/15 05:37:01;;;;;;;9.15;4.53;;;;;;;23.47;43.32;99093.69;4370191;32;34268;-86
2023/06/15 05:39:28;;;;;;;7.03;4.05;;;;;;;23.13;43.36;99095.03;4360939;32;34445;-87
2023/06/15 05:41:57;;;;;;;9.43;4.62;;;;;;;23.02;43.60;99091.94;4360825;32;33464;-85
2023/06/15 05:44:25;;;;;;;7.47;3.62;;;;;;;22.89;43.30;99106.53;4360171;32;34195;-84
2023/06/15 05:46:53;;;;;;;7.90;4.53;;;;;;;22.97;43.77;99109.78;4360456;32;34112;-85
2023/06/15 05:49:20;;;;;;;8.90;4.20;;;;;;;22.81;44.99;99112.13;4360734;32;34916;-85
2023/06/15 05:51:49;;;;;;;9.95;4.15;;;;;;;22.51;44.63;99116.78;4360170;32;33761;-85
2023/06/15 05:54:16;;;;;;;8.27;3.62;;;;;;;22.52;44.52;99115.84;4347356;32;34040;-85
2023/06/15 05:56:44;;;;;;;10.70;4.18;;;;;;;22.70;44.75;99115.16;4360505;32;34050;-84
2023/06/15 05:59:13;;;;;;;10.43;4.40;;;;;;;22.20;43.90;99117.87;4360342;32;34727;-86
2023/06/15 06:01:59;;;;;;;7.32;3.90;;;;;;;22.20;45.60;99120.50;4349187;32;33540;-86
2023/06/15 06:04:28;;;;;;;7.00;3.70;;;;;;;22.08;44.81;99118.25;4346848;32;34765;-85
2023/06/15 06:06:55;;;;;;;10.55;3.87;;;;;;;22.29;45.22;99125.47;4360505;32;33688;-86
2023/06/15 06:09:23;;;;;;;7.78;4.53;;;;;;;22.15;45.34;99127.72;4360439;32;34302;-90
2023/06/15 06:11:51;;;;;;;8.77;3.78;;;;;;;22.43;45.60;99122.34;4360199;32;33774;-85
2023/06/15 06:14:18;;;;;;;7.80;4.15;;;;;;;22.27;45.76;99124.63;4360421;32;34732;-86
2023/06/15 06:16:46;;;;;;;9.18;4.37;;;;;;;22.45;44.95;99123.13;4346916;32;33857;-86
2023/06/15 06:19:15;;;;;;;7.97;4.53;;;;;;;21.96;44.94;99124.81;4315817;32;1473653;-86
2023/06/15 06:21:42;;;;;;;7.50;4.22;;;;;;;22.16;45.75;99121.53;4360325;32;34565;-86
2023/06/15 06:24:10;;;;;;;7.20;3.90;;;;;;;22.12;45.16;99125.16;4360192;32;33964;-87
2023/06/15 06:26:38;;;;;;;9.50;4.53;;;;;;;22.19;44.96;99129.34;4359998;32;35059;-85
2023/06/15 06:29:05;;;;;;;11.30;4.65;;;;;;;22.14;45.11;99127.78;4360019;32;34238;-90
2023/06/15 06:31:32;;;;;;;8.85;4.45;;;;;;;22.52;44.39;99124.63;4360113;32;34123;-91
2023/06/15 06:34:00;;;;;;;6.43;3.83;;;;;;;22.87;44.92;99132.16;4359809;32;33853;-89
2023/06/15 06:36:27;;;;;;;9.27;4.72;;;;;;;22.99;43.82;99134.38;4359523;32;34148;-89
2023/06/15 06:38:55;;;;;;;7.97;4.12;;;;;;;23.33;43.93;99122.47;4360054;32;34872;-90
2023/06/15 06:41:29;;;;;;;5.97;3.72;;;;;;;23.96;42.58;99118.97;4360105;32;33699;-90
2023/06/15 06:43:56;;;;;;;7.75;4.10;;;;;;;23.75;41.68;99119.88;4360019;32;33915;-89
2023/06/15 06:46:24;;;;;;;11.23;4.37;;;;;;;23.19;42.15;99121.25;4360024;32;34145;-91
2023/06/15 06:48:52;;;;;;;8.68;4.25;;;;;;;23.18;43.35;99119.50;4359686;32;34440;-91
2023/06/15 06:51:19;;;;;;;7.97;3.95;;;;;;;23.82;44.49;99121.34;4360052;32;33593;-91
2023/06/15 06:53:47;;;;;;;9.10;4.47;;;;;;;23.68;42.25;99124.59;4359926;32;34011;-86
2023/06/15 06:56:15;;;;;;;8.48;3.45;;;;;;;24.28;42.52;99133.50;4359717;32;34224;-88
2023/06/15 06:58:42;;;;;;;9.63;4.47;;;;;;;24.84;41.26;99123.09;4359903;32;34471;-90
2023/06/15 07:01:10;;;;;;;7.82;4.10;;;;;;;24.60;39.50;99128.59;4360200;32;33786;-86
2023/06/15 07:03:39;;;;;;;10.00;4.68;;;;;;;24.58;40.40;99125.13;4360137;32;33925;-90
2023/06/15 07:06:06;;;;;;;9.68;3.95;;;;;;;24.85;39.11;99124.78;4359872;32;34823;-89
2023/06/15 07:08:34;;;;;;;9.75;5.15;;;;;;;24.13;40.88;99126.22;4360320;32;33880;-88
2023/06/15 07:11:02;;;;;;;7.18;3.60;;;;;;;23.41;40.55;99126.53;4360328;32;33376;-87
2023/06/15 07:13:30;;;;;;;9.48;4.40;;;;;;;24.57;40.83;99120.75;4359918;32;34463;-89
2023/06/15 07:15:57;;;;;;;7.87;4.05;;;;;;;24.04;40.58;99116.00;4359701;32;33879;-84
2023/06/15 07:18:26;;;;;;;8.77;4.62;;;;;;;24.03;41.45;99119.59;4359527;32;34078;-85
2023/06/15 07:20:53;;;;;;;8.35;4.50;;;;;;;24.20;40.15;99114.41;4359639;32;33252;-89
2023/06/15 07:23:22;;;;;;;7.53;4.30;;;;;;;23.15;42.32;99118.78;4359332;32;34708;-87
2023/06/15 07:25:53;;;;;;;9.98;4.10;;;;;;;24.08;40.64;99117.59;4359673;32;34431;-87
2023/06/15 07:28:21;;;;;;;9.07;4.05;;;;;;;24.19;39.99;99114.47;4359728;32;34238;-91
2023/06/15 07:30:49;;;;;;;9.27;4.57;;;;;;;23.20;42.41;99111.53;4345922;32;33467;-85
2023/06/15 07:36:04;;;;;;;8.63;4.20;;;;;;;23.59;41.57;99119.63;4359206;32;35133;-84
2023/06/15 07:38:32;;;;;;;11.68;4.20;;;;;;;23.55;41.01;99112.75;4359290;32;34346;-86
2023/06/15 07:40:59;;;;;;;8.00;4.12;;;;;;;23.82;41.40;99113.41;4359562;32;33640;-84
2023/06/15 07:43:26;;;;;;;7.18;4.00;;;;;;;24.49;39.81;99115.81;4359295;32;34060;-85
2023/06/15 07:45:54;;;;;;;7.78;3.97;;;;;;;24.80;38.78;99110.91;4359104;32;34516;-85
2023/06/15 07:48:22;;;;;;;7.32;4.37;;;;;;;24.69;38.42;99100.78;4360532;32;34352;-90
2023/06/15 07:50:49;;;;;;;13.68;4.15;;;;;;;24.85;37.42;99107.13;4361100;32;33266;-90
2023/06/15 07:53:17;;;;;;;7.37;4.30;;;;;;;25.11;38.97;99103.25;4361342;32;33994;-93
2023/06/15 07:55:45;;;;;;;8.38;3.50;;;;;;;25.02;36.20;99095.72;4361358;32;34142;-84
2023/06/15 07:58:12;;;;;;;8.65;3.30;;;;;;;24.25;38.39;99104.50;4361090;32;34158;-85
2023/06/15 08:00:40;;;;;;;8.00;3.75;;;;;;;24.33;39.13;99111.25;4361112;32;34054;-84
2023/06/15 08:03:08;;;;;;;7.43;3.35;;;;;;;24.65;37.47;99100.06;4361281;32;33459;-84
2023/06/15 08:05:35;;;;;;;6.68;3.40;;;;;;;24.99;36.80;99109.97;4361009;32;34934;-88
2023/06/15 08:08:03;;;;;;;8.30;3.80;;;;;;;25.12;36.44;99101.47;4361418;32;33280;-91
2023/06/15 08:10:32;;;;;;;8.43;3.70;;;;;;;24.85;35.60;99099.16;4361540;32;34409;-89
2023/06/15 08:12:59;;;;;;;7.05;3.65;;;;;;;24.56;35.85;99100.50;4361030;32;34825;-84
2023/06/15 08:15:28;;;;;;;5.60;3.60;;;;;;;24.36;36.48;99106.66;4361116;32;34930;-84
2023/06/15 08:17:56;;;;;;;7.97;3.70;;;;;;;24.68;38.05;99105.22;4361110;32;34318;-84
2023/06/15 08:20:23;;;;;;;8.35;3.85;;;;;;;24.39;37.34;99101.25;4360954;32;33355;-85
2023/06/15 08:22:51;;;;;;;7.68;3.60;;;;;;;25.11;37.53;99099.75;4361097;32;34010;-89
2023/06/15 08:25:18;;;;;;;6.28;3.42;;;;;;;24.70;37.40;99098.09;4360995;32;34037;-90
2023/06/15 08:27:46;;;;;;;6.30;3.78;;;;;;;25.15;36.58;99096.00;4361280;32;34834;-89
2023/06/15 08:30:15;;;;;;;8.80;3.55;;;;;;;24.87;38.02;99107.03;4360889;32;33512;-85
2023/06/15 08:32:43;;;;;;;6.55;3.72;;;;;;;24.97;39.53;99108.34;4360988;32;33984;-89
2023/06/15 08:35:11;;;;;;;6.18;3.15;;;;;;;25.19;37.41;99105.53;4360815;32;35047;-88
2023/06/15 08:37:38;;;;;;;6.45;3.62;;;;;;;25.11;34.30;99095.28;4360969;32;34137;-84
2023/06/15 08:40:08;;;;;;;7.57;3.78;;;;;;;25.56;34.89;99091.31;4361097;32;33520;-84
2023/06/15 08:42:35;;;;;;;7.70;3.80;;;;;;;25.95;36.20;99100.94;4361095;32;35085;-92
2023/06/15 08:45:05;;;;;;;8.10;3.75;;;;;;;25.61;34.86;99099.06;4347337;32;34185;-88
2023/06/15 08:47:36;;;;;;;7.32;3.58;;;;;;;24.81;35.61;99099.34;4360797;32;34534;-87
2023/06/15 08:50:05;;;;;;;8.43;3.83;;;;;;;25.56;35.51;99101.09;4361141;32;35044;-89
2023/06/15 08:52:34;;;;;;;8.50;3.42;;;;;;;25.87;34.55;99103.94;4360952;32;33769;-92
2023/06/15 08:55:03;;;;;;;8.38;3.72;;;;;;;25.75;33.46;99090.41;4360853;32;35134;-87
2023/06/15 08:57:35;;;;;;;7.12;3.85;;;;;;;25.22;32.53;99092.13;4347368;32;34066;-88
2023/06/15 09:00:09;;;;;;;6.40;3.62;;;;;;;25.66;34.79;99081.97;4360651;32;34604;-87
2023/06/15 09:02:41;;;;;;;7.18;3.58;;;;;;;25.42;33.53;99084.06;4360916;32;33625;-90
2023/06/15 09:05:09;;;;;;;6.15;3.65;;;;;;;25.83;35.41;99086.44;4347547;32;34119;-84
2023/06/15 09:07:36;;;;;;;6.57;3.42;;;;;;;25.91;33.99;99094.91;4347111;32;34957;-85
2023/06/15 09:10:17;;;;;;;8.50;3.97;;;;;;;25.68;34.62;99082.78;4360801;32;33746;-89
2023/06/15 09:12:49;;;;;;;7.80;3.35;;;;;;;26.07;32.77;99084.34;4347574;32;33984;-86
2023/06/15 09:15:37;;;;;;;7.68;3.53;;;;;;;25.92;34.75;99093.13;4360818;32;34527;-87
2023/06/15 09:18:06;;;;;;;5.95;3.22;;;;;;;26.19;31.01;99086.37;4360847;32;34990;-85
2023/06/15 09:20:37;;;;;;;7.28;3.95;;;;;;;26.43;30.29;99081.53;4360936;32;33694;-86
2023/06/15 09:23:09;;;;;;;9.52;3.72;;;;;;;25.76;32.19;99082.38;4360698;32;34015;-87
2023/06/15 09:25:41;;;;;;;6.80;3.00;;;;;;;26.16;30.22;99080.34;4360388;32;34198;-86
2023/06/15 09:28:09;;;;;;;8.10;3.17;;;;;;;26.19;32.84;99080.19;4347499;32;34022;-88
2023/06/15 09:30:37;;;;;;;5.45;3.00;;;;;;;26.25;30.54;99076.34;4360788;32;33326;-92
2023/06/15 09:33:18;;;;;;;6.15;3.30;;;;;;;26.44;30.64;99074.41;4360559;32;34046;-89
2023/06/15 09:36:05;;;;;;;7.05;2.70;;;;;;;26.27;28.50;99080.63;4360675;32;35166;-91
2023/06/15 09:38:41;;;;;;;5.47;2.78;;;;;;;26.46;30.90;99077.03;4360808;32;34934;-89
2023/06/15 09:41:09;;;;;;;7.37;3.25;;;;;;;26.44;31.20;99072.63;4360686;32;33541;-91
2023/06/15 09:43:40;;;;;;;5.65;3.10;;;;;;;26.71;30.36;99072.13;4360511;32;34747;-89
2023/06/15 09:46:12;;;;;;;7.57;3.10;;;;;;;26.20;30.81;99066.81;4360637;32;33677;-89
2023/06/15 09:48:40;;;;;;;5.90;2.90;;;;;;;26.59;31.06;99068.31;4360468;32;34438;-87
2023/06/15 09:51:08;;;;;;;10.07;3.00;;;;;;;26.71;30.35;99080.09;4360471;32;34362;-89
2023/06/15 09:53:37;;;;;;;6.32;3.35;;;;;;;26.51;28.62;99059.88;4360527;32;33852;-86
2023/06/15 09:56:05;;;;;;;8.13;3.50;;;;;;;25.81;31.57;99067.09;4360339;32;35089;-85
2023/06/15 09:58:52;;;;;;;7.20;3.20;;;;;;;25.84;30.73;99063.44;4349135;32;34056;-88
2023/06/15 10:01:22;;;;;;;6.57;3.22;;;;;;;26.61;32.46;99071.75;4360553;32;33371;-85
2023/06/15 10:03:52;;;;;;;6.28;2.90;;;;;;;26.84;30.71;99065.16;4347016;32;34715;-85
2023/06/15 10:06:22;;;;;;;5.60;3.50;;;;;;;26.81;29.04;99045.84;4360547;32;35512;-90
2023/06/15 10:08:54;;;;;;;4.55;2.72;;;;;;;27.31;30.46;99056.31;4347278;32;34014;-90
2023/06/15 10:11:22;;;;;;;5.50;2.87;;;;;;;27.20;29.48;99052.56;4359300;32;34412;-90
2023/06/15 10:13:53;;;;;;;5.07;2.55;;;;;;;27.24;28.94;99047.00;4360220;32;34847;-88
2023/06/15 10:16:21;;;;;;;6.22;3.12;;;;;;;26.92;29.35;99046.97;4346816;32;35157;-91
2023/06/15 10:18:58;;;;;;;5.40;2.85;;;;;;;26.39;28.68;99049.88;4360370;32;34138;-89
2023/06/15 10:21:28;;;;;;;5.87;2.62;;;;;;;26.85;27.96;99050.91;4360464;32;33517;-89
2023/06/15 10:23:56;;;;;;;7.55;2.92;;;;;;;27.33;27.67;99050.91;4360645;32;34129;-90
2023/06/15 10:26:24;;;;;;;6.45;3.08;;;;;;;27.21;27.10;99043.66;4346863;32;34296;-93
2023/06/15 10:28:59;;;;;;;5.70;2.90;;;;;;;26.83;28.13;99043.97;4358932;32;34649;-88
2023/06/15 10:31:31;;;;;;;4.90;2.85;;;;;;;27.02;29.31;99046.47;4346932;32;33506;-90
2023/06/15 10:34:04;;;;;;;4.80;2.67;;;;;;;26.38;28.88;99050.84;4360070;32;33908;-90
2023/06/15 10:37:04;;;;;;;6.00;2.33;;;;;;;26.91;30.42;99053.25;4360416;32;34226;-89
2023/06/15 10:39:36;;;;;;;6.60;2.95;;;;;;;26.57;27.31;99051.59;4358871;32;32996;-88
2023/06/15 10:42:08;;;;;;;5.75;2.75;;;;;;;26.90;27.74;99046.22;4358880;32;33314;-89
2023/06/15 10:44:35;;;;;;;8.20;2.92;;;;;;;27.37;30.41;99045.31;4359870;32;33983;-87
2023/06/15 10:47:06;;;;;;;6.85;2.85;;;;;;;26.82;26.49;99044.91;4360115;32;34219;-90
2023/06/15 10:49:34;;;;;;;5.30;2.60;;;;;;;27.15;27.94;99040.37;4358649;32;34143;-89
2023/06/15 10:52:06;;;;;;;7.30;2.70;;;;;;;27.57;27.79;99037.97;4359870;32;34526;-89
2023/06/15 10:54:35;;;;;;;10.55;2.90;;;;;;;27.55;28.48;99038.06;4346919;32;34054;-89
2023/06/15 10:57:06;;;;;;;5.12;2.37;;;;;;;27.69;27.61;99034.56;4358354;32;34034;-90
2023/06/15 10:59:56;;;;;;;7.32;2.75;;;;;;;27.36;27.40;99032.97;4359997;32;33792;-88
2023/06/15 11:02:27;;;;;;;7.03;3.15;;;;;;;27.08;28.13;99033.66;4359787;32;34423;-87
2023/06/15 11:05:01;;;;;;;5.90;2.80;;;;;;;27.56;31.70;99039.78;4359880;32;33942;-90
2023/06/15 11:07:30;;;;;;;8.02;3.20;;;;;;;27.60;30.44;99035.97;4359695;32;34026;-89
2023/06/15 11:10:00;;;;;;;5.53;3.10;;;;;;;26.72;28.26;99027.75;4346006;32;34474;-86
2023/06/15 11:12:35;;;;;;;6.80;3.17;;;;;;;26.58;29.74;99039.16;4358677;32;34420;-90
2023/06/15 11:15:05;;;;;;;6.20;2.87;;;;;;;26.10;28.51;99033.72;4346109;32;34024;-86
2023/06/15 11:17:52;;;;;;;6.43;3.00;;;;;;;26.78;27.09;99020.28;4359665;32;34322;-88
2023/06/15 11:20:47;;;;;;;5.45;2.97;;;;;;;26.86;28.58;99027.84;4359721;32;34130;-86
2023/06/15 11:23:19;;;;;;;6.60;2.60;;;;;;;26.91;30.07;99031.09;4361444;32;33668;-90
2023/06/15 11:25:49;;;;;;;6.28;2.58;;;;;;;26.79;27.20;99026.47;4361263;32;33919;-88
2023/06/15 11:28:30;;;;;;;6.05;2.47;;;;;;;27.05;26.49;99031.19;4361718;32;35154;-87
2023/06/15 11:31:06;;;;;;;7.78;3.25;;;;;;;27.39;25.70;99026.63;4350431;32;34874;-87
2023/06/15 11:33:36;;;;;;;11.57;2.92;;;;;;;27.26;25.65;99025.59;4361423;32;33517;-87
2023/06/15 11:36:07;;;;;;;7.28;3.10;;;;;;;27.36;25.11;99024.97;4361267;32;34541;-89
2023/06/15 11:38:35;;;;;;;5.10;2.80;;;;;;;27.32;24.66;99019.94;4360024;32;35101;-87
2023/06/15 11:41:05;;;;;;;6.37;3.03;;;;;;;27.35;25.41;99025.06;4361641;32;33945;-85
2023/06/15 11:43:41;;;;;;;7.35;2.60;;;;;;;27.20;25.49;99017.97;4361231;32;33846;-86
2023/06/15 11:46:11;;;;;;;6.15;3.00;;;;;;;26.95;23.62;99027.31;4348041;32;33534;-89